createdAt,value
2018-05-03T00:00:21.986Z,0.00
2018-05-03T00:01:21.939Z,0.00
2018-05-03T00:02:21.907Z,0.00
2018-05-03T00:03:21.853Z,0.00
2018-05-03T00:04:21.810Z,0.00
2018-05-03T00:05:21.767Z,0.00
2018-05-03T00:06:21.726Z,0.00
2018-05-03T00:07:21.682Z,0.00
2018-05-03T00:08:21.646Z,0.00
2018-05-03T00:09:21.602Z,0.00
2018-05-03T00:10:21.554Z,0.00
2018-05-03T00:11:21.514Z,0.00
2018-05-03T00:12:21.474Z,0.00
2018-05-03T00:13:21.431Z,0.00
2018-05-03T00:14:21.385Z,0.00
2018-05-03T00:15:21.345Z,0.00
2018-05-03T00:16:21.305Z,0.00
2018-05-03T00:17:21.258Z,0.00
2018-05-03T00:18:21.254Z,0.00
2018-05-03T00:19:21.177Z,0.00
2018-05-03T00:20:21.143Z,0.00
2018-05-03T00:21:21.095Z,0.00
2018-05-03T00:22:21.050Z,0.00
2018-05-03T00:23:21.009Z,0.00
2018-05-03T00:24:20.964Z,0.00
2018-05-03T00:25:20.922Z,0.00
2018-05-03T00:26:20.885Z,0.00
2018-05-03T00:27:20.841Z,0.00
2018-05-03T00:28:20.798Z,0.00
2018-05-03T00:29:20.751Z,0.00
2018-05-03T00:33:56.652Z,0.00
2018-05-03T00:34:04.188Z,0.00
2018-05-03T00:35:04.147Z,0.00
2018-05-03T00:36:04.104Z,0.00
2018-05-03T00:37:04.066Z,0.00
2018-05-03T00:38:04.019Z,0.00
2018-05-03T00:39:03.978Z,0.00
2018-05-03T00:40:03.939Z,0.00
2018-05-03T00:41:03.896Z,0.00
2018-05-03T00:42:03.851Z,0.00
2018-05-03T00:43:03.812Z,0.00
2018-05-03T00:44:03.766Z,0.00
2018-05-03T00:45:03.725Z,0.00
2018-05-03T00:46:03.684Z,0.00
2018-05-03T00:47:03.640Z,0.00
2018-05-03T00:48:03.598Z,0.00
2018-05-03T00:49:03.554Z,0.00
2018-05-03T00:50:03.556Z,0.00
2018-05-03T00:51:03.471Z,0.00
2018-05-03T00:52:03.429Z,0.00
2018-05-03T00:53:03.385Z,0.00
2018-05-03T00:54:03.349Z,0.00
2018-05-03T00:55:03.305Z,0.00
2018-05-03T00:56:03.258Z,0.00
2018-05-03T00:57:03.217Z,0.00
2018-05-03T00:58:03.175Z,0.00
2018-05-03T00:59:03.132Z,0.00
2018-05-03T01:00:03.090Z,0.00
2018-05-03T01:01:03.051Z,0.00
2018-05-03T01:02:03.007Z,0.00
2018-05-03T01:03:02.964Z,0.00
2018-05-03T01:04:02.920Z,0.00
2018-05-03T01:05:02.879Z,0.00
2018-05-03T01:06:02.837Z,0.00
2018-05-03T01:07:02.794Z,0.00
2018-05-03T01:08:02.754Z,0.00
2018-05-03T01:09:02.713Z,0.00
2018-05-03T01:10:02.667Z,0.00
2018-05-03T01:11:02.628Z,0.00
2018-05-03T01:12:02.589Z,0.00
2018-05-03T01:13:02.541Z,0.00
2018-05-03T01:14:02.501Z,0.00
2018-05-03T01:15:02.459Z,0.00
2018-05-03T01:16:02.414Z,0.00
2018-05-03T01:17:02.373Z,0.00
2018-05-03T01:18:02.336Z,0.00
2018-05-03T01:19:02.292Z,0.00
2018-05-03T01:20:02.248Z,0.00
2018-05-03T01:21:02.204Z,0.00
2018-05-03T01:22:02.163Z,0.00
2018-05-03T01:23:02.119Z,0.00
2018-05-03T01:24:02.075Z,0.00
2018-05-03T01:25:02.035Z,0.00
2018-05-03T01:26:01.993Z,0.00
2018-05-03T01:27:01.950Z,0.00
2018-05-03T01:28:01.910Z,0.00
2018-05-03T01:29:01.866Z,0.00
2018-05-03T01:30:01.821Z,0.00
2018-05-03T01:31:01.779Z,0.00
2018-05-03T01:32:01.735Z,0.00
2018-05-03T01:33:01.696Z,0.00
2018-05-03T01:34:01.653Z,0.00
2018-05-03T01:35:01.610Z,0.00
2018-05-03T01:36:01.567Z,0.00
2018-05-03T01:37:01.526Z,0.00
2018-05-03T01:38:01.486Z,0.00
2018-05-03T01:39:01.467Z,0.00
2018-05-03T01:40:01.397Z,0.00
2018-05-03T01:41:01.360Z,0.00
2018-05-03T01:42:01.316Z,0.00
2018-05-03T01:43:01.273Z,0.00
2018-05-03T01:44:01.229Z,0.00
2018-05-03T01:45:01.184Z,0.00
2018-05-03T01:46:01.145Z,0.00
2018-05-03T01:47:01.103Z,0.00
2018-05-03T01:48:01.062Z,0.00
2018-05-03T01:49:01.015Z,0.00
2018-05-03T01:50:00.974Z,0.00
2018-05-03T01:51:00.934Z,0.00
2018-05-03T01:52:00.890Z,0.00
2018-05-03T01:53:00.846Z,0.00
2018-05-03T01:54:00.806Z,0.00
2018-05-03T01:55:00.762Z,0.00
2018-05-03T01:56:00.719Z,0.00
2018-05-03T01:57:00.677Z,0.00
2018-05-03T01:58:00.634Z,0.00
2018-05-03T01:59:00.597Z,0.00
2018-05-03T02:00:00.550Z,0.00
2018-05-03T02:01:00.507Z,0.00
2018-05-03T02:02:00.465Z,0.00
2018-05-03T02:03:00.425Z,0.00
2018-05-03T02:04:00.381Z,0.00
2018-05-03T02:05:00.341Z,0.00
2018-05-03T02:06:00.295Z,0.00
2018-05-03T02:07:00.260Z,0.00
2018-05-03T02:08:00.211Z,0.00
2018-05-03T02:09:00.169Z,0.00
2018-05-03T02:10:00.127Z,0.00
2018-05-03T02:11:00.088Z,0.00
2018-05-03T02:12:00.049Z,0.00
2018-05-03T02:13:00.010Z,0.00
2018-05-03T02:13:59.956Z,0.00
2018-05-03T02:14:59.913Z,0.00
2018-05-03T02:15:59.872Z,0.00
2018-05-03T02:16:59.835Z,0.00
2018-05-03T02:17:59.788Z,0.00
2018-05-03T02:18:59.745Z,0.00
2018-05-03T02:19:59.701Z,0.00
2018-05-03T02:20:59.663Z,0.00
2018-05-03T02:21:59.620Z,0.00
2018-05-03T02:22:59.575Z,0.00
2018-05-03T02:23:59.533Z,0.00
2018-05-03T02:24:59.489Z,0.00
2018-05-03T02:25:59.448Z,0.00
2018-05-03T02:26:59.411Z,0.00
2018-05-03T02:27:59.365Z,0.00
2018-05-03T02:28:59.321Z,0.00
2018-05-03T02:29:59.280Z,0.00
2018-05-03T02:30:59.240Z,0.00
2018-05-03T02:31:59.194Z,0.00
2018-05-03T02:32:59.153Z,0.00
2018-05-03T02:33:59.116Z,0.00
2018-05-03T02:34:59.206Z,0.00
2018-05-03T02:35:59.023Z,0.00
2018-05-03T02:36:58.981Z,0.00
2018-05-03T02:37:58.939Z,0.00
2018-05-03T02:38:58.901Z,0.00
2018-05-03T02:39:58.854Z,0.00
2018-05-03T02:40:58.813Z,0.00
2018-05-03T02:41:58.773Z,0.00
2018-05-03T02:42:58.728Z,0.00
2018-05-03T02:43:58.683Z,0.00
2018-05-03T02:44:58.641Z,0.00
2018-05-03T02:45:58.612Z,0.00
2018-05-03T02:46:58.556Z,0.00
2018-05-03T02:47:58.516Z,0.00
2018-05-03T02:48:58.470Z,0.00
2018-05-03T02:49:58.429Z,0.00
2018-05-03T02:50:58.393Z,0.00
2018-05-03T02:51:58.348Z,0.00
2018-05-03T02:52:58.315Z,0.00
2018-05-03T02:53:58.263Z,0.00
2018-05-03T02:54:58.217Z,0.00
2018-05-03T02:55:58.173Z,0.00
2018-05-03T02:56:58.131Z,0.00
2018-05-03T02:57:58.089Z,0.00
2018-05-03T02:58:58.046Z,0.00
2018-05-03T02:59:58.001Z,0.00
2018-05-03T03:00:57.962Z,0.00
2018-05-03T03:01:57.917Z,0.00
2018-05-03T03:02:57.878Z,0.00
2018-05-03T03:03:57.840Z,0.00
2018-05-03T03:04:57.790Z,0.00
2018-05-03T03:05:57.754Z,0.00
2018-05-03T03:06:57.706Z,0.00
2018-05-03T03:07:57.662Z,0.00
2018-05-03T03:08:57.621Z,0.00
2018-05-03T03:09:57.578Z,0.00
2018-05-03T03:10:57.538Z,0.00
2018-05-03T03:11:57.492Z,0.00
2018-05-03T03:12:57.448Z,0.00
2018-05-03T03:13:57.406Z,0.00
2018-05-03T03:14:57.368Z,0.00
2018-05-03T03:15:57.325Z,0.00
2018-05-03T03:16:57.281Z,0.00
2018-05-03T03:17:57.233Z,0.00
2018-05-03T03:18:57.192Z,0.00
2018-05-03T03:19:57.147Z,0.00
2018-05-03T03:20:57.105Z,0.00
2018-05-03T03:21:57.121Z,0.00
2018-05-03T03:22:57.029Z,0.00
2018-05-03T03:23:56.978Z,0.00
2018-05-03T03:24:56.935Z,0.00
2018-05-03T03:25:56.890Z,0.00
2018-05-03T03:26:56.850Z,0.00
2018-05-03T03:27:56.804Z,0.00
2018-05-03T03:28:56.768Z,0.00
2018-05-03T03:29:56.721Z,0.00
2018-05-03T03:30:56.678Z,0.00
2018-05-03T03:31:56.634Z,0.00
2018-05-03T03:32:56.592Z,0.00
2018-05-03T03:33:56.548Z,0.00
2018-05-03T03:34:56.503Z,0.00
2018-05-03T03:35:56.463Z,0.00
2018-05-03T03:36:56.417Z,0.00
2018-05-03T03:37:56.376Z,0.00
2018-05-03T03:38:56.334Z,0.00
2018-05-03T03:39:56.289Z,0.00
2018-05-03T03:40:56.246Z,0.00
2018-05-03T03:41:56.205Z,0.00
2018-05-03T03:42:56.159Z,0.00
2018-05-03T03:43:56.117Z,0.00
2018-05-03T03:44:56.073Z,0.00
2018-05-03T03:45:56.032Z,0.00
2018-05-03T03:46:55.989Z,0.00
2018-05-03T03:47:55.944Z,0.00
2018-05-03T03:48:55.900Z,0.00
2018-05-03T03:49:55.860Z,0.00
2018-05-03T03:50:55.819Z,0.00
2018-05-03T03:51:55.774Z,0.00
2018-05-03T03:52:55.730Z,0.00
2018-05-03T03:53:55.688Z,0.00
2018-05-03T03:54:55.648Z,0.00
2018-05-03T03:55:55.599Z,0.00
2018-05-03T03:56:55.557Z,0.00
2018-05-03T03:57:55.514Z,0.00
2018-05-03T03:58:55.472Z,0.00
2018-05-03T03:59:55.434Z,0.00
2018-05-03T04:00:55.382Z,0.00
2018-05-03T04:01:55.343Z,0.00
2018-05-03T04:02:55.297Z,0.00
2018-05-03T04:03:55.256Z,0.00
2018-05-03T04:04:55.210Z,0.00
2018-05-03T04:05:55.167Z,0.00
2018-05-03T04:06:55.128Z,0.00
2018-05-03T04:07:55.084Z,0.00
2018-05-03T04:08:55.037Z,0.00
2018-05-03T04:09:54.994Z,0.00
2018-05-03T04:10:54.952Z,0.00
2018-05-03T04:11:54.907Z,0.00
2018-05-03T04:12:54.864Z,0.00
2018-05-03T04:13:54.820Z,0.00
2018-05-03T04:14:54.788Z,0.00
2018-05-03T04:15:54.737Z,0.00
2018-05-03T04:16:54.691Z,0.00
2018-05-03T04:17:54.655Z,0.00
2018-05-03T04:18:54.610Z,0.00
2018-05-03T04:19:54.560Z,0.00
2018-05-03T04:20:54.518Z,0.00
2018-05-03T04:21:54.478Z,5.63
2018-05-03T04:22:54.436Z,5.63
2018-05-03T04:23:54.401Z,5.63
2018-05-03T04:24:54.362Z,5.63
2018-05-03T04:25:54.304Z,5.63
2018-05-03T04:26:54.264Z,5.63
2018-05-03T04:27:54.216Z,5.63
2018-05-03T04:28:54.172Z,5.63
2018-05-03T04:29:54.133Z,5.63
2018-05-03T04:30:54.085Z,5.63
2018-05-03T04:31:54.040Z,5.63
2018-05-03T04:32:54.000Z,5.63
2018-05-03T04:33:53.953Z,5.63
2018-05-03T04:34:53.913Z,5.63
2018-05-03T04:35:53.869Z,5.63
2018-05-03T04:36:53.824Z,5.63
2018-05-03T04:37:53.781Z,5.63
2018-05-03T04:38:53.741Z,5.63
2018-05-03T04:39:53.691Z,11.25
2018-05-03T04:40:53.652Z,11.25
2018-05-03T04:41:53.606Z,11.25
2018-05-03T04:42:53.568Z,11.25
2018-05-03T04:43:53.523Z,11.25
2018-05-03T04:44:53.480Z,11.25
2018-05-03T04:45:53.447Z,11.25
2018-05-03T04:46:53.470Z,11.25
2018-05-03T04:47:53.344Z,11.25
2018-05-03T04:48:53.304Z,11.25
2018-05-03T04:49:53.261Z,11.25
2018-05-03T04:50:53.217Z,16.88
2018-05-03T04:51:53.172Z,16.88
2018-05-03T04:52:53.128Z,16.88
2018-05-03T04:53:53.085Z,16.88
2018-05-03T04:54:53.044Z,16.88
2018-05-03T04:55:53.009Z,16.88
2018-05-03T04:56:52.955Z,16.88
2018-05-03T04:57:52.911Z,16.88
2018-05-03T04:58:52.867Z,16.88
2018-05-03T04:59:52.823Z,22.50
2018-05-03T05:00:52.780Z,22.50
2018-05-03T05:01:52.768Z,22.50
2018-05-03T05:02:52.694Z,22.50
2018-05-03T05:03:52.651Z,22.50
2018-05-03T05:04:52.608Z,22.50
2018-05-03T05:05:52.562Z,22.50
2018-05-03T05:06:52.517Z,22.50
2018-05-03T05:07:52.478Z,22.50
2018-05-03T05:08:52.430Z,22.50
2018-05-03T05:09:52.387Z,28.13
2018-05-03T05:10:52.347Z,28.13
2018-05-03T05:11:52.300Z,28.13
2018-05-03T05:12:52.259Z,28.13
2018-05-03T05:13:52.212Z,28.13
2018-05-03T05:14:52.172Z,28.13
2018-05-03T05:15:52.127Z,28.13
2018-05-03T05:16:52.086Z,28.13
2018-05-03T05:17:52.059Z,28.13
2018-05-03T05:18:51.995Z,28.13
2018-05-03T05:19:51.950Z,33.75
2018-05-03T05:20:51.914Z,33.75
2018-05-03T05:21:51.866Z,33.75
2018-05-03T05:22:51.821Z,33.75
2018-05-03T05:23:51.785Z,33.75
2018-05-03T05:24:51.745Z,33.75
2018-05-03T05:25:51.696Z,33.75
2018-05-03T05:26:51.649Z,33.75
2018-05-03T05:27:51.607Z,33.75
2018-05-03T05:28:51.562Z,39.38
2018-05-03T05:29:51.517Z,39.38
2018-05-03T05:30:51.478Z,39.38
2018-05-03T05:31:51.430Z,39.38
2018-05-03T05:32:51.389Z,39.38
2018-05-03T05:33:51.344Z,39.38
2018-05-03T05:34:51.300Z,39.38
2018-05-03T05:35:51.257Z,39.38
2018-05-03T05:36:51.213Z,45.00
2018-05-03T05:37:51.174Z,45.00
2018-05-03T05:38:51.206Z,45.00
2018-05-03T05:39:51.082Z,45.00
2018-05-03T05:40:51.047Z,45.00
2018-05-03T05:41:50.997Z,45.00
2018-05-03T05:42:50.954Z,45.00
2018-05-03T05:43:50.918Z,45.00
2018-05-03T05:44:50.867Z,45.00
2018-05-03T05:45:50.833Z,45.00
2018-05-03T05:46:50.793Z,45.00
2018-05-03T05:47:50.741Z,45.00
2018-05-03T05:48:50.698Z,45.00
2018-05-03T05:49:50.651Z,45.00
2018-05-03T05:50:50.610Z,45.00
2018-05-03T05:51:50.563Z,45.00
2018-05-03T05:52:50.523Z,45.00
2018-05-03T05:53:50.477Z,45.00
2018-05-03T05:54:50.438Z,50.63
2018-05-03T05:55:50.396Z,50.63
2018-05-03T05:56:50.351Z,50.63
2018-05-03T05:57:50.305Z,50.63
2018-05-03T05:58:50.265Z,50.63
2018-05-03T05:59:50.219Z,50.63
2018-05-03T06:00:50.176Z,50.63
2018-05-03T06:01:50.132Z,56.25
2018-05-03T06:02:50.091Z,50.63
2018-05-03T06:03:50.045Z,50.63
2018-05-03T06:04:50.002Z,50.63
2018-05-03T06:05:49.959Z,50.63
2018-05-03T06:06:49.919Z,56.25
2018-05-03T06:07:49.879Z,56.25
2018-05-03T06:08:49.831Z,56.25
2018-05-03T06:09:49.788Z,56.25
2018-05-03T06:10:49.746Z,61.88
2018-05-03T06:11:49.701Z,67.50
2018-05-03T06:12:49.661Z,67.50
2018-05-03T06:13:49.622Z,67.50
2018-05-03T06:14:49.573Z,61.88
2018-05-03T06:15:49.533Z,61.88
2018-05-03T06:16:49.489Z,56.25
2018-05-03T06:17:49.447Z,61.88
2018-05-03T06:18:49.402Z,61.88
2018-05-03T06:19:49.361Z,67.50
2018-05-03T06:20:49.867Z,67.50
2018-05-03T06:21:49.275Z,67.50
2018-05-03T06:22:49.231Z,61.88
2018-05-03T06:23:49.190Z,61.88
2018-05-03T06:24:49.146Z,61.88
2018-05-03T06:25:55.413Z,61.88
2018-05-03T06:26:49.065Z,73.13
2018-05-03T06:27:49.021Z,73.13
2018-05-03T06:28:48.974Z,73.13
2018-05-03T06:29:48.933Z,73.13
2018-05-03T06:30:48.889Z,67.50
2018-05-03T06:31:48.847Z,73.13
2018-05-03T06:32:48.803Z,67.50
2018-05-03T06:33:48.760Z,61.88
2018-05-03T06:34:48.716Z,61.88
2018-05-03T06:35:48.679Z,67.50
2018-05-03T06:36:48.632Z,73.13
2018-05-03T06:37:48.589Z,67.50
2018-05-03T06:38:48.621Z,67.50
2018-05-03T06:39:48.507Z,67.50
2018-05-03T06:40:48.462Z,73.13
2018-05-03T06:41:48.420Z,73.13
2018-05-03T06:42:48.381Z,73.13
2018-05-03T06:43:48.333Z,73.13
2018-05-03T06:44:48.292Z,73.13
2018-05-03T06:45:48.259Z,73.13
2018-05-03T06:46:48.208Z,73.13
2018-05-03T06:47:48.166Z,73.13
2018-05-03T06:48:48.123Z,73.13
2018-05-03T06:49:48.082Z,73.13
2018-05-03T06:50:48.039Z,73.13
2018-05-03T06:51:47.997Z,73.13
2018-05-03T06:52:47.956Z,73.13
2018-05-03T06:53:47.912Z,73.13
2018-05-03T06:54:47.870Z,67.50
2018-05-03T06:55:47.854Z,61.88
2018-05-03T06:56:47.786Z,67.50
2018-05-03T06:57:47.746Z,67.50
2018-05-03T06:58:47.699Z,84.38
2018-05-03T06:59:47.660Z,78.75
2018-05-03T07:00:47.619Z,78.75
2018-05-03T07:01:47.574Z,84.38
2018-05-03T07:02:47.531Z,78.75
2018-05-03T07:03:47.489Z,78.75
2018-05-03T07:04:47.452Z,73.13
2018-05-03T07:05:47.405Z,67.50
2018-05-03T07:06:47.362Z,73.13
2018-05-03T07:07:47.321Z,73.13
2018-05-03T07:08:47.283Z,67.50
2018-05-03T07:09:47.237Z,78.75
2018-05-03T07:10:47.195Z,67.50
2018-05-03T07:11:47.154Z,67.50
2018-05-03T07:12:47.158Z,78.75
2018-05-03T07:13:47.073Z,84.38
2018-05-03T07:14:47.029Z,78.75
2018-05-03T07:15:46.982Z,90.00
2018-05-03T07:16:46.944Z,78.75
2018-05-03T07:17:46.902Z,73.13
2018-05-03T07:18:46.858Z,84.38
2018-05-03T07:19:46.816Z,73.13
2018-05-03T07:20:46.774Z,78.75
2018-05-03T07:21:50.186Z,78.75
2018-05-03T07:22:46.692Z,78.75
2018-05-03T07:23:46.665Z,84.38
2018-05-03T07:24:46.610Z,78.75
2018-05-03T07:25:46.566Z,78.75
2018-05-03T07:26:46.524Z,90.00
2018-05-03T07:27:46.483Z,95.63
2018-05-03T07:28:46.441Z,90.00
2018-05-03T07:29:46.405Z,84.38
2018-05-03T07:30:46.358Z,78.75
2018-05-03T07:31:46.316Z,84.38
2018-05-03T07:32:46.273Z,90.00
2018-05-03T07:33:46.232Z,95.63
2018-05-03T07:34:46.235Z,95.63
2018-05-03T07:35:46.148Z,90.00
2018-05-03T07:36:46.107Z,95.63
2018-05-03T07:37:46.068Z,95.63
2018-05-03T07:38:46.026Z,95.63
2018-05-03T07:39:45.987Z,84.38
2018-05-03T07:40:46.009Z,101.25
2018-05-03T07:41:45.898Z,95.63
2018-05-03T07:42:45.859Z,84.38
2018-05-03T07:43:45.815Z,101.25
2018-05-03T07:44:45.780Z,84.38
2018-05-03T07:45:45.738Z,84.38
2018-05-03T07:46:45.698Z,90.00
2018-05-03T07:47:45.655Z,95.63
2018-05-03T07:48:45.695Z,112.50
2018-05-03T07:49:45.571Z,118.13
2018-05-03T07:50:45.532Z,112.50
2018-05-03T07:51:45.489Z,112.50
2018-05-03T07:52:45.451Z,112.50
2018-05-03T07:53:45.409Z,123.75
2018-05-03T07:54:45.373Z,118.13
2018-05-03T07:55:45.329Z,95.63
2018-05-03T07:56:45.401Z,106.88
2018-05-03T07:57:45.251Z,84.38
2018-05-03T07:58:45.211Z,84.38
2018-05-03T07:59:45.177Z,101.25
2018-05-03T08:00:45.130Z,118.13
2018-05-03T08:01:45.094Z,106.88
2018-05-03T08:02:45.052Z,95.63
2018-05-03T08:03:45.014Z,90.00
2018-05-03T08:04:44.974Z,101.25
2018-05-03T08:05:44.936Z,90.00
2018-05-03T08:06:44.900Z,129.38
2018-05-03T08:07:44.860Z,129.38
2018-05-03T08:08:44.818Z,101.25
2018-05-03T08:09:44.779Z,123.75
2018-05-03T08:10:44.739Z,118.13
2018-05-03T08:11:44.702Z,129.38
2018-05-03T08:12:44.661Z,118.13
2018-05-03T08:13:44.623Z,95.63
2018-05-03T08:14:44.587Z,118.13
2018-05-03T08:15:44.547Z,95.63
2018-05-03T08:16:44.506Z,95.63
2018-05-03T08:17:44.472Z,95.63
2018-05-03T08:18:44.429Z,129.38
2018-05-03T08:19:44.393Z,118.13
2018-05-03T08:20:44.355Z,118.13
2018-05-03T08:21:44.317Z,129.38
2018-05-03T08:22:44.279Z,129.38
2018-05-03T08:23:44.241Z,135.00
2018-05-03T08:24:44.205Z,123.75
2018-05-03T08:25:44.164Z,123.75
2018-05-03T08:26:44.131Z,118.13
2018-05-03T08:27:44.086Z,118.13
2018-05-03T08:28:44.046Z,129.38
2018-05-03T08:29:44.009Z,118.13
2018-05-03T08:30:43.971Z,118.13
2018-05-03T08:31:44.028Z,129.38
2018-05-03T08:32:43.896Z,135.00
2018-05-03T08:33:43.863Z,118.13
2018-05-03T08:34:43.820Z,129.38
2018-05-03T08:35:43.782Z,95.63
2018-05-03T08:36:43.744Z,129.38
2018-05-03T08:37:43.713Z,118.13
2018-05-03T08:38:43.672Z,129.38
2018-05-03T08:39:43.636Z,135.00
2018-05-03T08:40:43.594Z,129.38
2018-05-03T08:41:43.557Z,129.38
2018-05-03T08:42:43.518Z,123.75
2018-05-03T08:43:43.479Z,95.63
2018-05-03T08:44:43.444Z,118.13
2018-05-03T08:45:43.403Z,61.88
2018-05-03T08:46:43.368Z,95.63
2018-05-03T08:47:43.328Z,106.88
2018-05-03T08:48:43.295Z,112.50
2018-05-03T08:49:43.257Z,78.75
2018-05-03T08:50:43.224Z,90.00
2018-05-03T08:51:43.181Z,123.75
2018-05-03T08:52:43.146Z,118.13
2018-05-03T08:53:43.107Z,123.75
2018-05-03T08:54:43.070Z,129.38
2018-05-03T08:55:43.087Z,106.88
2018-05-03T08:56:42.995Z,101.25
2018-05-03T08:57:42.959Z,67.50
2018-05-03T08:58:42.926Z,61.88
2018-05-03T08:59:42.881Z,95.63
2018-05-03T09:00:42.843Z,84.38
2018-05-03T09:01:42.887Z,78.75
2018-05-03T09:02:42.768Z,112.50
2018-05-03T09:03:42.735Z,135.00
2018-05-03T09:04:42.693Z,106.88
2018-05-03T09:05:42.658Z,118.13
2018-05-03T09:06:42.619Z,101.25
2018-05-03T09:07:42.709Z,112.50
2018-05-03T09:08:42.545Z,129.38
2018-05-03T09:09:42.508Z,146.25
2018-05-03T09:10:42.468Z,151.88
2018-05-03T09:11:42.433Z,135.00
2018-05-03T09:12:42.394Z,129.38
2018-05-03T09:13:42.357Z,129.38
2018-05-03T09:14:42.320Z,118.13
2018-05-03T09:15:42.283Z,123.75
2018-05-03T09:16:42.252Z,112.50
2018-05-03T09:17:42.208Z,140.63
2018-05-03T09:18:42.170Z,146.25
2018-05-03T09:19:42.133Z,123.75
2018-05-03T09:20:42.096Z,118.13
2018-05-03T09:21:42.060Z,135.00
2018-05-03T09:22:42.025Z,118.13
2018-05-03T09:23:41.983Z,112.50
2018-05-03T09:24:41.953Z,101.25
2018-05-03T09:25:41.916Z,101.25
2018-05-03T09:26:41.877Z,101.25
2018-05-03T09:27:41.839Z,106.88
2018-05-03T09:28:41.805Z,118.13
2018-05-03T09:29:41.768Z,118.13
2018-05-03T09:30:41.732Z,135.00
2018-05-03T09:31:41.688Z,101.25
2018-05-03T09:32:41.654Z,118.13
2018-05-03T09:33:41.619Z,135.00
2018-05-03T09:34:41.581Z,140.63
2018-05-03T09:35:41.550Z,129.38
2018-05-03T09:36:41.508Z,135.00
2018-05-03T09:37:41.473Z,135.00
2018-05-03T09:38:41.434Z,118.13
2018-05-03T09:39:41.401Z,146.25
2018-05-03T09:40:41.361Z,135.00
2018-05-03T09:41:41.325Z,135.00
2018-05-03T09:42:41.290Z,123.75
2018-05-03T09:43:41.255Z,118.13
2018-05-03T09:44:41.241Z,101.25
2018-05-03T09:45:41.178Z,101.25
2018-05-03T09:46:41.186Z,129.38
2018-05-03T09:47:41.104Z,129.38
2018-05-03T09:48:41.069Z,123.75
2018-05-03T09:49:41.044Z,129.38
2018-05-03T09:50:41.001Z,129.38
2018-05-03T09:51:40.963Z,123.75
2018-05-03T09:52:40.925Z,140.63
2018-05-03T09:53:40.887Z,123.75
2018-05-03T09:54:40.855Z,101.25
2018-05-03T09:55:40.816Z,95.63
2018-05-03T09:56:40.776Z,101.25
2018-05-03T09:57:40.748Z,101.25
2018-05-03T09:58:40.708Z,106.88
2018-05-03T09:59:40.668Z,140.63
2018-05-03T10:00:40.630Z,135.00
2018-05-03T10:01:40.600Z,106.88
2018-05-03T10:02:40.557Z,146.25
2018-05-03T10:03:40.530Z,146.25
2018-05-03T10:04:40.553Z,140.63
2018-05-03T10:05:40.447Z,135.00
2018-05-03T10:06:40.418Z,123.75
2018-05-03T10:07:40.377Z,118.13
2018-05-03T10:08:40.346Z,106.88
2018-05-03T10:09:40.300Z,84.38
2018-05-03T10:10:40.263Z,95.63
2018-05-03T10:11:40.226Z,123.75
2018-05-03T10:12:40.188Z,106.88
2018-05-03T10:13:40.152Z,135.00
2018-05-03T10:14:40.147Z,112.50
2018-05-03T10:15:40.078Z,118.13
2018-05-03T10:16:40.043Z,129.38
2018-05-03T10:17:40.008Z,112.50
2018-05-03T10:18:39.979Z,151.88
2018-05-03T10:19:39.931Z,118.13
2018-05-03T10:20:39.890Z,146.25
2018-05-03T10:21:39.853Z,157.50
2018-05-03T10:22:39.943Z,157.50
2018-05-03T10:23:39.785Z,157.50
2018-05-03T10:24:39.745Z,168.75
2018-05-03T10:25:39.708Z,174.38
2018-05-03T10:26:39.668Z,180.00
2018-05-03T10:27:39.635Z,174.38
2018-05-03T10:28:39.592Z,174.38
2018-05-03T10:29:39.564Z,191.25
2018-05-03T10:30:39.534Z,180.00
2018-05-03T10:31:39.481Z,163.13
2018-05-03T10:32:39.442Z,151.88
2018-05-03T10:33:39.427Z,163.13
2018-05-03T10:34:39.372Z,174.38
2018-05-03T10:35:39.399Z,146.25
2018-05-03T10:36:39.296Z,140.63
2018-05-03T10:37:39.277Z,168.75
2018-05-03T10:38:39.218Z,196.88
2018-05-03T10:39:39.181Z,191.25
2018-05-03T10:40:39.142Z,191.25
2018-05-03T10:41:39.105Z,202.50
2018-05-03T10:42:39.069Z,202.50
2018-05-03T10:43:39.028Z,202.50
2018-05-03T10:44:38.991Z,208.13
2018-05-03T10:45:38.957Z,213.75
2018-05-03T10:46:38.918Z,213.75
2018-05-03T10:47:38.880Z,213.75
2018-05-03T10:48:38.920Z,213.75
2018-05-03T10:49:38.804Z,208.13
2018-05-03T10:50:38.770Z,196.88
2018-05-03T10:51:38.733Z,202.50
2018-05-03T10:52:38.697Z,208.13
2018-05-03T10:53:38.657Z,180.00
2018-05-03T10:54:38.620Z,196.88
2018-05-03T10:55:38.587Z,196.88
2018-05-03T10:56:38.548Z,219.38
2018-05-03T10:57:38.516Z,106.88
2018-05-03T10:58:38.479Z,236.25
2018-05-03T10:59:38.437Z,236.25
2018-05-03T11:00:38.400Z,219.38
2018-05-03T11:01:38.367Z,208.13
2018-05-03T11:02:38.332Z,213.75
2018-05-03T11:03:38.292Z,163.13
2018-05-03T11:04:38.254Z,168.75
2018-05-03T11:05:38.258Z,196.88
2018-05-03T11:06:38.186Z,196.88
2018-05-03T11:07:38.145Z,157.50
2018-05-03T11:08:38.111Z,163.13
2018-05-03T11:09:38.071Z,191.25
2018-05-03T11:10:38.043Z,202.50
2018-05-03T11:11:38.006Z,219.38
2018-05-03T11:12:37.977Z,180.00
2018-05-03T11:13:37.930Z,151.88
2018-05-03T11:14:37.899Z,157.50
2018-05-03T11:16:37.903Z,174.38
2018-05-03T11:17:37.795Z,151.88
2018-05-03T11:18:37.756Z,140.63
2018-05-03T11:19:37.719Z,163.13
2018-05-03T11:20:37.684Z,151.88
2018-05-03T11:21:37.652Z,180.00
2018-05-03T11:22:37.615Z,230.63
2018-05-03T11:23:37.579Z,174.38
2018-05-03T11:24:37.545Z,213.75
2018-05-03T11:25:37.513Z,157.50
2018-05-03T11:26:37.476Z,213.75
2018-05-03T11:27:37.450Z,191.25
2018-05-03T11:28:37.404Z,264.38
2018-05-03T11:29:37.380Z,236.25
2018-05-03T11:30:37.336Z,247.50
2018-05-03T11:31:37.301Z,253.13
2018-05-03T11:32:37.272Z,253.13
2018-05-03T11:33:37.233Z,236.25
2018-05-03T11:34:37.197Z,191.25
2018-05-03T11:35:37.167Z,151.88
2018-05-03T11:36:37.212Z,146.25
2018-05-03T11:37:37.100Z,146.25
2018-05-03T11:38:37.060Z,163.13
2018-05-03T11:39:37.026Z,129.38
2018-05-03T11:40:36.997Z,123.75
2018-05-03T11:41:36.965Z,106.88
2018-05-03T11:42:36.992Z,106.88
2018-05-03T11:43:36.888Z,135.00
2018-05-03T11:44:36.859Z,123.75
2018-05-03T11:45:36.891Z,112.50
2018-05-03T11:46:36.795Z,112.50
2018-05-03T11:47:36.749Z,84.38
2018-05-03T11:48:36.720Z,180.00
2018-05-03T11:49:36.680Z,180.00
2018-05-03T11:50:36.647Z,225.00
2018-05-03T11:51:36.862Z,191.25
2018-05-03T11:52:36.673Z,253.13
2018-05-03T11:53:36.591Z,292.50
2018-05-03T11:54:36.551Z,281.25
2018-05-03T11:55:36.470Z,247.50
2018-05-03T11:56:36.440Z,241.88
2018-05-03T11:57:36.405Z,151.88
2018-05-03T11:58:36.375Z,163.13
2018-05-03T11:59:36.331Z,129.38
2018-05-03T12:00:36.298Z,101.25
2018-05-03T12:01:36.318Z,101.25
2018-05-03T12:02:36.335Z,106.88
2018-05-03T12:03:36.203Z,118.13
2018-05-03T12:04:36.159Z,202.50
2018-05-03T12:05:36.123Z,191.25
2018-05-03T12:06:36.088Z,101.25
2018-05-03T12:07:36.049Z,90.00
2018-05-03T12:08:36.017Z,78.75
2018-05-03T12:09:36.035Z,78.75
2018-05-03T12:10:36.193Z,73.13
2018-05-03T12:11:35.951Z,78.75
2018-05-03T12:12:35.963Z,84.38
2018-05-03T12:13:35.893Z,90.00
2018-05-03T12:14:35.846Z,106.88
2018-05-03T12:15:35.820Z,101.25
2018-05-03T12:16:35.770Z,106.88
2018-05-03T12:17:35.741Z,112.50
2018-05-03T12:18:35.705Z,236.25
2018-05-03T12:19:35.664Z,253.13
2018-05-03T12:20:35.621Z,241.88
2018-05-03T12:21:35.591Z,208.13
2018-05-03T12:22:35.616Z,191.25
2018-05-03T12:23:35.509Z,236.25
2018-05-03T12:24:35.442Z,315.00
2018-05-03T12:25:35.458Z,315.00
2018-05-03T12:26:35.418Z,309.38
2018-05-03T12:27:35.427Z,315.00
2018-05-03T12:28:35.340Z,298.13
2018-05-03T12:29:35.314Z,258.75
2018-05-03T12:30:35.276Z,264.38
2018-05-03T12:31:35.204Z,236.25
2018-05-03T12:32:35.158Z,275.63
2018-05-03T12:33:35.170Z,264.38
2018-05-03T12:34:35.143Z,196.88
2018-05-03T12:35:35.054Z,202.50
2018-05-03T12:36:35.018Z,202.50
2018-05-03T12:37:34.982Z,337.50
2018-05-03T12:38:34.946Z,258.75
2018-05-03T12:39:34.914Z,258.75
2018-05-03T12:40:34.891Z,230.63
2018-05-03T12:41:34.843Z,213.75
2018-05-03T12:42:34.812Z,241.88
2018-05-03T12:43:34.777Z,264.38
2018-05-03T12:44:34.741Z,275.63
2018-05-03T12:45:34.709Z,236.25
2018-05-03T12:46:34.726Z,191.25
2018-05-03T12:47:34.741Z,236.25
2018-05-03T12:48:34.656Z,253.13
2018-05-03T12:49:34.620Z,196.88
2018-05-03T12:50:34.586Z,241.88
2018-05-03T12:51:34.505Z,241.88
2018-05-03T12:52:34.490Z,241.88
2018-05-03T12:53:34.473Z,275.63
2018-05-03T12:54:34.411Z,286.88
2018-05-03T12:55:34.371Z,337.50